sensor_id;sensor_type;location;lat;lon;timestamp;pressure;altitude;pressure_sealevel;temperature
65290;BMP180;51893;59.754;10.110;2022-12-18T00:00:48;101518.60;;;-3.10
65290;BMP180;51893;59.754;10.110;2022-12-18T00:03:39;101511.80;;;-3.10
65290;BMP180;51893;59.754;10.110;2022-12-18T00:06:08;101512.00;;;-3.10
65290;BMP180;51893;59.754;10.110;2022-12-18T00:08:35;101513.60;;;-3.10
65290;BMP180;51893;59.754;10.110;2022-12-18T00:11:10;101511.20;;;-3.18
65290;BMP180;51893;59.754;10.110;2022-12-18T00:13:38;101506.40;;;-3.20
65290;BMP180;51893;59.754;10.110;2022-12-18T00:16:10;101510.60;;;-3.24
65290;BMP180;51893;59.754;10.110;2022-12-18T00:18:42;101510.80;;;-3.30
65290;BMP180;51893;59.754;10.110;2022-12-18T00:21:13;101506.00;;;-3.30
65290;BMP180;51893;59.754;10.110;2022-12-18T00:23:44;101506.80;;;-3.30
65290;BMP180;51893;59.754;10.110;2022-12-18T00:26:18;101504.80;;;-3.26
65290;BMP180;51893;59.754;10.110;2022-12-18T00:28:46;101504.80;;;-3.20
65290;BMP180;51893;59.754;10.110;2022-12-18T00:31:23;101503.20;;;-3.28
65290;BMP180;51893;59.754;10.110;2022-12-18T00:33:55;101500.80;;;-3.30
65290;BMP180;51893;59.754;10.110;2022-12-18T00:36:30;101497.00;;;-3.30
65290;BMP180;51893;59.754;10.110;2022-12-18T00:39:04;101483.20;;;-3.30
65290;BMP180;51893;59.754;10.110;2022-12-18T00:41:34;101491.80;;;-3.40
65290;BMP180;51893;59.754;10.110;2022-12-18T00:44:20;101472.20;;;-3.40
65290;BMP180;51893;59.754;10.110;2022-12-18T00:46:51;101470.40;;;-3.50
65290;BMP180;51893;59.754;10.110;2022-12-18T00:49:26;101477.20;;;-3.50
65290;BMP180;51893;59.754;10.110;2022-12-18T00:51:58;101474.80;;;-3.50
65290;BMP180;51893;59.754;10.110;2022-12-18T00:54:27;101474.20;;;-3.50
65290;BMP180;51893;59.754;10.110;2022-12-18T00:56:59;101471.60;;;-3.50
65290;BMP180;51893;59.754;10.110;2022-12-18T00:59:31;101469.20;;;-3.60
65290;BMP180;51893;59.754;10.110;2022-12-18T01:02:01;101464.00;;;-3.58
65290;BMP180;51893;59.754;10.110;2022-12-18T01:04:32;101467.80;;;-3.60
65290;BMP180;51893;59.754;10.110;2022-12-18T01:07:00;101463.80;;;-3.60
65290;BMP180;51893;59.754;10.110;2022-12-18T01:09:27;101474.40;;;-3.70
65290;BMP180;51893;59.754;10.110;2022-12-18T01:11:58;101468.20;;;-3.70
65290;BMP180;51893;59.754;10.110;2022-12-18T01:14:26;101453.00;;;-3.74
65290;BMP180;51893;59.754;10.110;2022-12-18T01:16:54;101461.00;;;-3.90
65290;BMP180;51893;59.754;10.110;2022-12-18T01:19:24;101474.80;;;-3.84
65290;BMP180;51893;59.754;10.110;2022-12-18T01:21:54;101472.60;;;-3.80
65290;BMP180;51893;59.754;10.110;2022-12-18T01:24:23;101467.00;;;-3.80
65290;BMP180;51893;59.754;10.110;2022-12-18T01:26:50;101446.60;;;-3.80
65290;BMP180;51893;59.754;10.110;2022-12-18T01:29:19;101461.80;;;-3.90
65290;BMP180;51893;59.754;10.110;2022-12-18T01:31:47;101476.20;;;-3.90
65290;BMP180;51893;59.754;10.110;2022-12-18T01:34:14;101439.80;;;-3.90
65290;BMP180;51893;59.754;10.110;2022-12-18T01:36:41;101445.80;;;-3.92
65290;BMP180;51893;59.754;10.110;2022-12-18T01:39:14;101457.80;;;-4.00
65290;BMP180;51893;59.754;10.110;2022-12-18T01:41:47;101445.40;;;-4.00
65290;BMP180;51893;59.754;10.110;2022-12-18T01:45:04;101452.40;;;-4.00
65290;BMP180;51893;59.754;10.110;2022-12-18T01:53:02;101455.20;;;-4.06
65290;BMP180;51893;59.754;10.110;2022-12-18T01:55:39;101445.00;;;-4.00
65290;BMP180;51893;59.754;10.110;2022-12-18T01:58:09;101439.60;;;-3.98
65290;BMP180;51893;59.754;10.110;2022-12-18T02:00:40;101450.00;;;-3.90
65290;BMP180;51893;59.754;10.110;2022-12-18T02:03:08;101445.00;;;-3.90
65290;BMP180;51893;59.754;10.110;2022-12-18T02:05:47;101427.40;;;-3.90
65290;BMP180;51893;59.754;10.110;2022-12-18T02:08:43;101434.00;;;-4.00
65290;BMP180;51893;59.754;10.110;2022-12-18T02:17:19;101423.80;;;-4.10
65290;BMP180;51893;59.754;10.110;2022-12-18T02:23:30;101432.40;;;-4.10
65290;BMP180;51893;59.754;10.110;2022-12-18T02:26:37;101422.00;;;-4.20
65290;BMP180;51893;59.754;10.110;2022-12-18T02:32:15;101432.20;;;-4.20
65290;BMP180;51893;59.754;10.110;2022-12-18T02:34:50;101436.20;;;-4.20
65290;BMP180;51893;59.754;10.110;2022-12-18T02:37:29;101418.60;;;-4.22
65290;BMP180;51893;59.754;10.110;2022-12-18T02:39:59;101420.00;;;-4.30
65290;BMP180;51893;59.754;10.110;2022-12-18T02:42:30;101403.80;;;-4.30
65290;BMP180;51893;59.754;10.110;2022-12-18T02:44:58;101427.80;;;-4.30
65290;BMP180;51893;59.754;10.110;2022-12-18T02:47:32;101428.20;;;-4.30
65290;BMP180;51893;59.754;10.110;2022-12-18T02:50:33;101423.20;;;-4.30
65290;BMP180;51893;59.754;10.110;2022-12-18T02:53:56;101413.20;;;-4.30
65290;BMP180;51893;59.754;10.110;2022-12-18T02:56:45;101410.00;;;-4.30
65290;BMP180;51893;59.754;10.110;2022-12-18T02:59:21;101423.00;;;-4.30
65290;BMP180;51893;59.754;10.110;2022-12-18T03:02:08;101410.60;;;-4.30
65290;BMP180;51893;59.754;10.110;2022-12-18T03:04:58;101427.00;;;-4.30
65290;BMP180;51893;59.754;10.110;2022-12-18T03:07:47;101401.00;;;-4.42
65290;BMP180;51893;59.754;10.110;2022-12-18T03:10:28;101385.80;;;-4.58
65290;BMP180;51893;59.754;10.110;2022-12-18T03:13:20;101415.60;;;-4.60
65290;BMP180;51893;59.754;10.110;2022-12-18T03:15:57;101406.80;;;-4.60
65290;BMP180;51893;59.754;10.110;2022-12-18T03:18:52;101380.40;;;-4.60
65290;BMP180;51893;59.754;10.110;2022-12-18T03:21:38;101380.60;;;-4.60
65290;BMP180;51893;59.754;10.110;2022-12-18T03:24:11;101379.40;;;-4.60
65290;BMP180;51893;59.754;10.110;2022-12-18T03:26:47;101391.80;;;-4.60
65290;BMP180;51893;59.754;10.110;2022-12-18T03:29:25;101401.80;;;-4.60
65290;BMP180;51893;59.754;10.110;2022-12-18T03:32:23;101398.20;;;-4.70
65290;BMP180;51893;59.754;10.110;2022-12-18T03:34:59;101386.40;;;-4.70
65290;BMP180;51893;59.754;10.110;2022-12-18T03:37:35;101394.20;;;-4.80
65290;BMP180;51893;59.754;10.110;2022-12-18T03:40:04;101410.60;;;-4.80
65290;BMP180;51893;59.754;10.110;2022-12-18T03:43:00;101421.20;;;-4.90
65290;BMP180;51893;59.754;10.110;2022-12-18T03:45:51;101433.80;;;-4.90
65290;BMP180;51893;59.754;10.110;2022-12-18T03:48:46;101431.20;;;-5.00
65290;BMP180;51893;59.754;10.110;2022-12-18T03:51:52;101401.60;;;-5.00
65290;BMP180;51893;59.754;10.110;2022-12-18T03:54:26;101410.00;;;-5.10
65290;BMP180;51893;59.754;10.110;2022-12-18T03:57:05;101414.20;;;-5.10
65290;BMP180;51893;59.754;10.110;2022-12-18T03:59:35;101395.60;;;-5.00
65290;BMP180;51893;59.754;10.110;2022-12-18T04:02:07;101390.60;;;-5.00
65290;BMP180;51893;59.754;10.110;2022-12-18T04:04:40;101396.00;;;-5.10
65290;BMP180;51893;59.754;10.110;2022-12-18T04:07:10;101374.40;;;-5.10
65290;BMP180;51893;59.754;10.110;2022-12-18T04:09:39;101403.40;;;-5.10
65290;BMP180;51893;59.754;10.110;2022-12-18T04:12:13;101405.80;;;-5.10
65290;BMP180;51893;59.754;10.110;2022-12-18T04:14:41;101386.00;;;-5.04
65290;BMP180;51893;59.754;10.110;2022-12-18T04:17:09;101413.20;;;-5.08
65290;BMP180;51893;59.754;10.110;2022-12-18T04:19:36;101418.00;;;-5.10
65290;BMP180;51893;59.754;10.110;2022-12-18T04:22:04;101411.80;;;-5.10
65290;BMP180;51893;59.754;10.110;2022-12-18T04:24:31;101411.00;;;-5.12
65290;BMP180;51893;59.754;10.110;2022-12-18T04:26:58;101420.40;;;-5.20
65290;BMP180;51893;59.754;10.110;2022-12-18T04:29:25;101417.20;;;-5.20
65290;BMP180;51893;59.754;10.110;2022-12-18T04:31:53;101426.40;;;-5.12
65290;BMP180;51893;59.754;10.110;2022-12-18T04:34:20;101412.80;;;-5.14
65290;BMP180;51893;59.754;10.110;2022-12-18T04:36:50;101403.60;;;-5.20
65290;BMP180;51893;59.754;10.110;2022-12-18T04:39:20;101416.40;;;-5.30
65290;BMP180;51893;59.754;10.110;2022-12-18T04:41:55;101411.80;;;-5.20
65290;BMP180;51893;59.754;10.110;2022-12-18T04:44:25;101407.00;;;-5.20
65290;BMP180;51893;59.754;10.110;2022-12-18T04:46:53;101401.40;;;-5.20
65290;BMP180;51893;59.754;10.110;2022-12-18T04:49:24;101393.20;;;-5.20
65290;BMP180;51893;59.754;10.110;2022-12-18T04:51:57;101404.00;;;-5.20
65290;BMP180;51893;59.754;10.110;2022-12-18T04:54:27;101407.00;;;-5.20
65290;BMP180;51893;59.754;10.110;2022-12-18T04:57:01;101401.00;;;-5.20
65290;BMP180;51893;59.754;10.110;2022-12-18T04:59:29;101418.40;;;-5.20
65290;BMP180;51893;59.754;10.110;2022-12-18T05:01:59;101426.00;;;-5.20
65290;BMP180;51893;59.754;10.110;2022-12-18T05:04:26;101429.00;;;-5.20
65290;BMP180;51893;59.754;10.110;2022-12-18T05:06:53;101425.60;;;-5.20
65290;BMP180;51893;59.754;10.110;2022-12-18T05:09:25;101431.40;;;-5.30
65290;BMP180;51893;59.754;10.110;2022-12-18T05:12:01;101432.80;;;-5.40
65290;BMP180;51893;59.754;10.110;2022-12-18T05:14:30;101434.40;;;-5.50
65290;BMP180;51893;59.754;10.110;2022-12-18T05:17:14;101439.80;;;-5.50
65290;BMP180;51893;59.754;10.110;2022-12-18T05:19:43;101430.40;;;-5.40
65290;BMP180;51893;59.754;10.110;2022-12-18T05:22:12;101422.20;;;-5.40
65290;BMP180;51893;59.754;10.110;2022-12-18T05:24:40;101432.20;;;-5.40
65290;BMP180;51893;59.754;10.110;2022-12-18T05:27:08;101425.40;;;-5.40
65290;BMP180;51893;59.754;10.110;2022-12-18T05:29:39;101432.20;;;-5.42
65290;BMP180;51893;59.754;10.110;2022-12-18T05:32:06;101431.20;;;-5.40
65290;BMP180;51893;59.754;10.110;2022-12-18T05:34:34;101437.00;;;-5.40
65290;BMP180;51893;59.754;10.110;2022-12-18T05:37:03;101429.80;;;-5.32
65290;BMP180;51893;59.754;10.110;2022-12-18T05:39:30;101426.60;;;-5.30
65290;BMP180;51893;59.754;10.110;2022-12-18T05:41:57;101435.40;;;-5.30
65290;BMP180;51893;59.754;10.110;2022-12-18T05:44:26;101441.20;;;-5.20
65290;BMP180;51893;59.754;10.110;2022-12-18T05:47:03;101437.60;;;-5.20
65290;BMP180;51893;59.754;10.110;2022-12-18T05:49:33;101430.20;;;-5.20
65290;BMP180;51893;59.754;10.110;2022-12-18T05:52:00;101422.00;;;-5.14
65290;BMP180;51893;59.754;10.110;2022-12-18T05:54:28;101422.80;;;-5.18
65290;BMP180;51893;59.754;10.110;2022-12-18T05:56:56;101415.40;;;-5.10
65290;BMP180;51893;59.754;10.110;2022-12-18T05:59:24;101417.40;;;-5.10
65290;BMP180;51893;59.754;10.110;2022-12-18T06:01:52;101407.40;;;-5.20
65290;BMP180;51893;59.754;10.110;2022-12-18T06:04:19;101423.00;;;-5.40
65290;BMP180;51893;59.754;10.110;2022-12-18T06:06:51;101417.60;;;-5.40
65290;BMP180;51893;59.754;10.110;2022-12-18T06:09:23;101430.20;;;-5.50
65290;BMP180;51893;59.754;10.110;2022-12-18T06:11:52;101422.80;;;-5.50
65290;BMP180;51893;59.754;10.110;2022-12-18T06:14:19;101419.00;;;-5.60
65290;BMP180;51893;59.754;10.110;2022-12-18T06:16:50;101424.20;;;-5.62
65290;BMP180;51893;59.754;10.110;2022-12-18T06:19:19;101427.60;;;-5.70
65290;BMP180;51893;59.754;10.110;2022-12-18T06:21:46;101420.00;;;-5.80
65290;BMP180;51893;59.754;10.110;2022-12-18T06:24:16;101416.20;;;-5.90
65290;BMP180;51893;59.754;10.110;2022-12-18T06:26:44;101430.40;;;-6.00
65290;BMP180;51893;59.754;10.110;2022-12-18T06:29:12;101431.40;;;-6.10
65290;BMP180;51893;59.754;10.110;2022-12-18T06:31:40;101452.20;;;-6.18
65290;BMP180;51893;59.754;10.110;2022-12-18T06:34:07;101476.80;;;-6.30
65290;BMP180;51893;59.754;10.110;2022-12-18T06:36:34;101463.80;;;-6.30
65290;BMP180;51893;59.754;10.110;2022-12-18T06:39:02;101468.60;;;-6.32
65290;BMP180;51893;59.754;10.110;2022-12-18T06:41:31;101478.40;;;-6.30
65290;BMP180;51893;59.754;10.110;2022-12-18T06:43:57;101483.00;;;-6.30
65290;BMP180;51893;59.754;10.110;2022-12-18T06:46:28;101461.60;;;-6.30
65290;BMP180;51893;59.754;10.110;2022-12-18T06:48:55;101459.40;;;-6.30
65290;BMP180;51893;59.754;10.110;2022-12-18T06:51:24;101468.00;;;-6.26
65290;BMP180;51893;59.754;10.110;2022-12-18T06:53:53;101458.00;;;-6.20
65290;BMP180;51893;59.754;10.110;2022-12-18T06:56:22;101471.40;;;-6.20
65290;BMP180;51893;59.754;10.110;2022-12-18T06:58:50;101481.40;;;-6.20
65290;BMP180;51893;59.754;10.110;2022-12-18T07:01:18;101472.20;;;-6.20
65290;BMP180;51893;59.754;10.110;2022-12-18T07:03:58;101483.80;;;-6.10
65290;BMP180;51893;59.754;10.110;2022-12-18T07:06:26;101483.60;;;-6.12
65290;BMP180;51893;59.754;10.110;2022-12-18T07:08:54;101497.80;;;-6.20
65290;BMP180;51893;59.754;10.110;2022-12-18T07:11:21;101486.00;;;-6.20
65290;BMP180;51893;59.754;10.110;2022-12-18T07:13:52;101495.40;;;-6.30
65290;BMP180;51893;59.754;10.110;2022-12-18T07:16:21;101493.20;;;-6.30
65290;BMP180;51893;59.754;10.110;2022-12-18T07:18:56;101496.00;;;-6.40
65290;BMP180;51893;59.754;10.110;2022-12-18T07:21:25;101501.60;;;-6.40
65290;BMP180;51893;59.754;10.110;2022-12-18T07:23:54;101492.60;;;-6.44
65290;BMP180;51893;59.754;10.110;2022-12-18T07:26:22;101509.20;;;-6.50
65290;BMP180;51893;59.754;10.110;2022-12-18T07:28:56;101507.00;;;-6.60
65290;BMP180;51893;59.754;10.110;2022-12-18T07:31:25;101520.00;;;-6.60
65290;BMP180;51893;59.754;10.110;2022-12-18T07:33:54;101516.20;;;-6.60
65290;BMP180;51893;59.754;10.110;2022-12-18T07:36:21;101518.60;;;-6.70
65290;BMP180;51893;59.754;10.110;2022-12-18T07:38:50;101509.40;;;-6.70
65290;BMP180;51893;59.754;10.110;2022-12-18T07:41:20;101507.20;;;-6.70
65290;BMP180;51893;59.754;10.110;2022-12-18T07:43:50;101514.20;;;-6.70
65290;BMP180;51893;59.754;10.110;2022-12-18T07:46:19;101507.40;;;-6.60
65290;BMP180;51893;59.754;10.110;2022-12-18T07:48:49;101514.20;;;-6.50
65290;BMP180;51893;59.754;10.110;2022-12-18T07:51:20;101511.80;;;-6.50
65290;BMP180;51893;59.754;10.110;2022-12-18T07:53:47;101511.80;;;-6.50
65290;BMP180;51893;59.754;10.110;2022-12-18T07:56:19;101519.40;;;-6.68
65290;BMP180;51893;59.754;10.110;2022-12-18T07:58:58;101514.40;;;-6.68
65290;BMP180;51893;59.754;10.110;2022-12-18T08:01:27;101529.80;;;-6.68
65290;BMP180;51893;59.754;10.110;2022-12-18T08:03:54;101534.80;;;-6.64
65290;BMP180;51893;59.754;10.110;2022-12-18T08:06:24;101533.80;;;-6.60
65290;BMP180;51893;59.754;10.110;2022-12-18T08:09:01;101522.40;;;-6.70
65290;BMP180;51893;59.754;10.110;2022-12-18T08:11:29;101528.00;;;-6.80
65290;BMP180;51893;59.754;10.110;2022-12-18T08:14:13;101531.80;;;-7.00
65290;BMP180;51893;59.754;10.110;2022-12-18T08:16:41;101539.80;;;-7.06
65290;BMP180;51893;59.754;10.110;2022-12-18T08:19:09;101536.40;;;-7.10
65290;BMP180;51893;59.754;10.110;2022-12-18T08:21:41;101548.00;;;-7.10
65290;BMP180;51893;59.754;10.110;2022-12-18T08:24:12;101541.40;;;-7.00
65290;BMP180;51893;59.754;10.110;2022-12-18T08:26:39;101550.40;;;-7.00
65290;BMP180;51893;59.754;10.110;2022-12-18T08:29:08;101567.00;;;-7.00
65290;BMP180;51893;59.754;10.110;2022-12-18T08:31:39;101562.60;;;-7.00
65290;BMP180;51893;59.754;10.110;2022-12-18T08:34:11;101578.60;;;-7.00
65290;BMP180;51893;59.754;10.110;2022-12-18T08:36:40;101588.40;;;-6.90
65290;BMP180;51893;59.754;10.110;2022-12-18T08:39:07;101584.80;;;-6.90
65290;BMP180;51893;59.754;10.110;2022-12-18T08:41:35;101593.80;;;-6.80
65290;BMP180;51893;59.754;10.110;2022-12-18T08:44:07;101608.20;;;-6.82
65290;BMP180;51893;59.754;10.110;2022-12-18T08:46:56;101611.00;;;-6.88
65290;BMP180;51893;59.754;10.110;2022-12-18T08:49:26;101619.40;;;-6.80
65290;BMP180;51893;59.754;10.110;2022-12-18T08:51:57;101624.60;;;-6.70
65290;BMP180;51893;59.754;10.110;2022-12-18T08:54:28;101634.40;;;-6.60
65290;BMP180;51893;59.754;10.110;2022-12-18T08:57:00;101644.60;;;-6.60
65290;BMP180;51893;59.754;10.110;2022-12-18T08:59:28;101649.20;;;-6.60
65290;BMP180;51893;59.754;10.110;2022-12-18T09:01:55;101650.60;;;-6.50
65290;BMP180;51893;59.754;10.110;2022-12-18T09:04:26;101651.80;;;-6.60
65290;BMP180;51893;59.754;10.110;2022-12-18T09:06:54;101653.00;;;-6.60
65290;BMP180;51893;59.754;10.110;2022-12-18T09:09:22;101654.00;;;-6.54
65290;BMP180;51893;59.754;10.110;2022-12-18T09:11:52;101651.80;;;-6.60
65290;BMP180;51893;59.754;10.110;2022-12-18T09:14:21;101653.00;;;-6.60
65290;BMP180;51893;59.754;10.110;2022-12-18T09:16:52;101659.20;;;-6.58
65290;BMP180;51893;59.754;10.110;2022-12-18T09:19:23;101660.00;;;-6.60
65290;BMP180;51893;59.754;10.110;2022-12-18T09:21:51;101668.60;;;-6.60
65290;BMP180;51893;59.754;10.110;2022-12-18T09:24:21;101668.00;;;-6.60
65290;BMP180;51893;59.754;10.110;2022-12-18T09:26:53;101682.60;;;-6.60
65290;BMP180;51893;59.754;10.110;2022-12-18T09:29:24;101669.60;;;-6.60
65290;BMP180;51893;59.754;10.110;2022-12-18T09:31:52;101672.40;;;-6.58
65290;BMP180;51893;59.754;10.110;2022-12-18T09:34:19;101681.00;;;-6.50
65290;BMP180;51893;59.754;10.110;2022-12-18T09:36:51;101680.20;;;-6.42
65290;BMP180;51893;59.754;10.110;2022-12-18T09:39:17;101687.00;;;-6.40
65290;BMP180;51893;59.754;10.110;2022-12-18T09:41:58;101685.60;;;-6.52
65290;BMP180;51893;59.754;10.110;2022-12-18T09:44:54;101689.00;;;-6.56
65290;BMP180;51893;59.754;10.110;2022-12-18T09:47:36;101700.40;;;-6.70
65290;BMP180;51893;59.754;10.110;2022-12-18T09:50:32;101702.20;;;-6.80
65290;BMP180;51893;59.754;10.110;2022-12-18T09:53:17;101715.60;;;-6.90
65290;BMP180;51893;59.754;10.110;2022-12-18T09:55:54;101726.60;;;-6.90
65290;BMP180;51893;59.754;10.110;2022-12-18T09:58:41;101737.40;;;-7.00
65290;BMP180;51893;59.754;10.110;2022-12-18T10:01:12;101749.40;;;-6.90
65290;BMP180;51893;59.754;10.110;2022-12-18T10:03:48;101754.20;;;-6.90
65290;BMP180;51893;59.754;10.110;2022-12-18T10:06:42;101759.20;;;-6.94
65290;BMP180;51893;59.754;10.110;2022-12-18T10:09:27;101761.40;;;-7.00
65290;BMP180;51893;59.754;10.110;2022-12-18T10:12:32;101769.00;;;-6.90
65290;BMP180;51893;59.754;10.110;2022-12-18T10:15:24;101771.80;;;-6.90
65290;BMP180;51893;59.754;10.110;2022-12-18T10:18:19;101782.40;;;-6.90
65290;BMP180;51893;59.754;10.110;2022-12-18T10:20:56;101789.80;;;-6.88
65290;BMP180;51893;59.754;10.110;2022-12-18T10:23:54;101790.80;;;-6.80
65290;BMP180;51893;59.754;10.110;2022-12-18T10:26:33;101785.20;;;-6.70
65290;BMP180;51893;59.754;10.110;2022-12-18T10:29:01;101789.60;;;-6.60
65290;BMP180;51893;59.754;10.110;2022-12-18T10:31:31;101787.00;;;-6.60
65290;BMP180;51893;59.754;10.110;2022-12-18T10:33:58;101792.80;;;-6.60
65290;BMP180;51893;59.754;10.110;2022-12-18T10:36:25;101801.80;;;-6.40
65290;BMP180;51893;59.754;10.110;2022-12-18T10:39:23;101802.80;;;-6.30
65290;BMP180;51893;59.754;10.110;2022-12-18T10:42:19;101810.00;;;-6.34
65290;BMP180;51893;59.754;10.110;2022-12-18T10:44:46;101826.40;;;-6.40
65290;BMP180;51893;59.754;10.110;2022-12-18T10:47:29;101823.80;;;-6.48
65290;BMP180;51893;59.754;10.110;2022-12-18T10:49:57;101830.20;;;-6.60
65290;BMP180;51893;59.754;10.110;2022-12-18T10:52:27;101834.20;;;-6.60
65290;BMP180;51893;59.754;10.110;2022-12-18T10:55:02;101845.80;;;-6.70
65290;BMP180;51893;59.754;10.110;2022-12-18T10:57:40;101849.40;;;-6.80
65290;BMP180;51893;59.754;10.110;2022-12-18T11:00:29;101850.80;;;-6.90
65290;BMP180;51893;59.754;10.110;2022-12-18T11:02:58;101853.40;;;-6.90
65290;BMP180;51893;59.754;10.110;2022-12-18T11:05:33;101849.40;;;-6.80
65290;BMP180;51893;59.754;10.110;2022-12-18T11:08:01;101843.60;;;-6.70
65290;BMP180;51893;59.754;10.110;2022-12-18T11:10:59;101845.00;;;-6.70
65290;BMP180;51893;59.754;10.110;2022-12-18T11:13:31;101845.00;;;-6.70
65290;BMP180;51893;59.754;10.110;2022-12-18T11:16:00;101853.60;;;-6.66
65290;BMP180;51893;59.754;10.110;2022-12-18T11:18:34;101859.20;;;-6.60
65290;BMP180;51893;59.754;10.110;2022-12-18T11:21:10;101865.80;;;-6.60
65290;BMP180;51893;59.754;10.110;2022-12-18T11:23:59;101859.80;;;-6.50
65290;BMP180;51893;59.754;10.110;2022-12-18T11:26:34;101863.80;;;-6.48
65290;BMP180;51893;59.754;10.110;2022-12-18T11:29:16;101878.40;;;-6.40
65290;BMP180;51893;59.754;10.110;2022-12-18T11:31:44;101885.20;;;-6.30
65290;BMP180;51893;59.754;10.110;2022-12-18T11:34:30;101890.20;;;-6.30
65290;BMP180;51893;59.754;10.110;2022-12-18T11:37:02;101892.20;;;-6.30
65290;BMP180;51893;59.754;10.110;2022-12-18T11:39:39;101897.80;;;-6.30
65290;BMP180;51893;59.754;10.110;2022-12-18T11:42:24;101905.80;;;-6.40
65290;BMP180;51893;59.754;10.110;2022-12-18T11:45:21;101908.60;;;-6.50
65290;BMP180;51893;59.754;10.110;2022-12-18T11:48:21;101915.40;;;-6.64
65290;BMP180;51893;59.754;10.110;2022-12-18T11:50:59;101933.40;;;-6.70
65290;BMP180;51893;59.754;10.110;2022-12-18T11:53:27;101930.80;;;-6.76
65290;BMP180;51893;59.754;10.110;2022-12-18T11:56:32;101936.80;;;-6.80
65290;BMP180;51893;59.754;10.110;2022-12-18T11:59:33;101942.40;;;-6.80
65290;BMP180;51893;59.754;10.110;2022-12-18T12:08:45;101946.20;;;-6.70
65290;BMP180;51893;59.754;10.110;2022-12-18T12:11:49;101955.40;;;-6.60
65290;BMP180;51893;59.754;10.110;2022-12-18T12:26:35;101972.60;;;-6.48
65290;BMP180;51893;59.754;10.110;2022-12-18T12:32:36;101987.40;;;-6.40
65290;BMP180;51893;59.754;10.110;2022-12-18T12:35:57;101988.80;;;-6.40
65290;BMP180;51893;59.754;10.110;2022-12-18T12:38:46;102000.00;;;-6.50
65290;BMP180;51893;59.754;10.110;2022-12-18T12:41:23;102002.20;;;-6.56
65290;BMP180;51893;59.754;10.110;2022-12-18T12:44:32;102012.00;;;-6.58
65290;BMP180;51893;59.754;10.110;2022-12-18T12:47:16;102023.00;;;-6.44
65290;BMP180;51893;59.754;10.110;2022-12-18T12:49:46;102032.00;;;-6.36
65290;BMP180;51893;59.754;10.110;2022-12-18T12:52:24;102039.40;;;-6.30
65290;BMP180;51893;59.754;10.110;2022-12-18T12:55:02;102050.80;;;-6.20
65290;BMP180;51893;59.754;10.110;2022-12-18T12:57:52;102054.60;;;-6.12
65290;BMP180;51893;59.754;10.110;2022-12-18T13:00:29;102052.60;;;-6.10
65290;BMP180;51893;59.754;10.110;2022-12-18T13:09:18;102067.20;;;-6.24
65290;BMP180;51893;59.754;10.110;2022-12-18T13:11:47;102069.00;;;-6.30
65290;BMP180;51893;59.754;10.110;2022-12-18T13:14:40;102080.00;;;-6.30
65290;BMP180;51893;59.754;10.110;2022-12-18T13:17:29;102083.60;;;-6.30
65290;BMP180;51893;59.754;10.110;2022-12-18T13:20:11;102073.40;;;-6.24
65290;BMP180;51893;59.754;10.110;2022-12-18T13:22:49;102075.00;;;-6.26
65290;BMP180;51893;59.754;10.110;2022-12-18T13:25:38;102074.20;;;-6.24
65290;BMP180;51893;59.754;10.110;2022-12-18T13:34:23;102103.00;;;-6.10
65290;BMP180;51893;59.754;10.110;2022-12-18T13:37:41;102092.00;;;-6.20
65290;BMP180;51893;59.754;10.110;2022-12-18T13:51:33;102132.20;;;-6.20
65290;BMP180;51893;59.754;10.110;2022-12-18T13:54:39;102140.20;;;-6.14
65290;BMP180;51893;59.754;10.110;2022-12-18T13:57:31;102149.00;;;-6.10
65290;BMP180;51893;59.754;10.110;2022-12-18T14:02:58;102164.80;;;-6.18
65290;BMP180;51893;59.754;10.110;2022-12-18T14:05:31;102172.60;;;-6.16
65290;BMP180;51893;59.754;10.110;2022-12-18T14:08:11;102177.40;;;-6.20
65290;BMP180;51893;59.754;10.110;2022-12-18T14:10:46;102180.00;;;-6.14
65290;BMP180;51893;59.754;10.110;2022-12-18T14:13:47;102188.20;;;-6.20
65290;BMP180;51893;59.754;10.110;2022-12-18T14:16:18;102185.00;;;-6.00
65290;BMP180;51893;59.754;10.110;2022-12-18T14:18:56;102188.60;;;-6.00
65290;BMP180;51893;59.754;10.110;2022-12-18T14:21:37;102187.20;;;-6.00
65290;BMP180;51893;59.754;10.110;2022-12-18T14:24:21;102187.80;;;-6.16
65290;BMP180;51893;59.754;10.110;2022-12-18T14:27:22;102192.60;;;-6.10
65290;BMP180;51893;59.754;10.110;2022-12-18T14:29:54;102205.00;;;-5.94
65290;BMP180;51893;59.754;10.110;2022-12-18T14:32:29;102206.60;;;-6.00
65290;BMP180;51893;59.754;10.110;2022-12-18T14:34:56;102201.00;;;-6.00
65290;BMP180;51893;59.754;10.110;2022-12-18T14:37:29;102203.80;;;-6.10
65290;BMP180;51893;59.754;10.110;2022-12-18T14:40:04;102200.60;;;-6.10
65290;BMP180;51893;59.754;10.110;2022-12-18T14:42:40;102197.40;;;-6.10
65290;BMP180;51893;59.754;10.110;2022-12-18T14:45:43;102206.00;;;-6.04
65290;BMP180;51893;59.754;10.110;2022-12-18T14:48:20;102201.60;;;-6.00
65290;BMP180;51893;59.754;10.110;2022-12-18T14:51:18;102203.80;;;-5.96
65290;BMP180;51893;59.754;10.110;2022-12-18T14:54:02;102203.60;;;-5.90
65290;BMP180;51893;59.754;10.110;2022-12-18T14:56:46;102200.00;;;-5.90
65290;BMP180;51893;59.754;10.110;2022-12-18T14:59:23;102197.40;;;-5.86
65290;BMP180;51893;59.754;10.110;2022-12-18T15:02:26;102204.80;;;-5.90
65290;BMP180;51893;59.754;10.110;2022-12-18T15:05:28;102204.80;;;-5.80
65290;BMP180;51893;59.754;10.110;2022-12-18T15:08:00;102214.20;;;-5.90
65290;BMP180;51893;59.754;10.110;2022-12-18T15:10:33;102220.00;;;-5.82
65290;BMP180;51893;59.754;10.110;2022-12-18T15:13:20;102233.20;;;-5.90
65290;BMP180;51893;59.754;10.110;2022-12-18T15:15:52;102238.40;;;-5.80
65290;BMP180;51893;59.754;10.110;2022-12-18T15:18:32;102253.20;;;-5.90
65290;BMP180;51893;59.754;10.110;2022-12-18T15:21:10;102242.60;;;-5.88
65290;BMP180;51893;59.754;10.110;2022-12-18T15:26:14;102250.60;;;-5.90
65290;BMP180;51893;59.754;10.110;2022-12-18T15:28:55;102251.40;;;-5.90
65290;BMP180;51893;59.754;10.110;2022-12-18T15:36:30;102258.00;;;-5.90
65290;BMP180;51893;59.754;10.110;2022-12-18T15:38:58;102259.20;;;-5.80
65290;BMP180;51893;59.754;10.110;2022-12-18T15:41:36;102254.40;;;-5.80
65290;BMP180;51893;59.754;10.110;2022-12-18T15:44:31;102262.60;;;-5.76
65290;BMP180;51893;59.754;10.110;2022-12-18T15:47:12;102268.00;;;-5.70